Time;durP1;ratioP1;P1;durP2;ratioP2;P2;SDS_P1;SDS_P2;PMS_P1;PMS_P2;Temp;Humidity;BMP_temperature;BMP_pressure;BME280_temperature;BME280_humidity;BME280_pressure;Samples;Min_cycle;Max_cycle;Signal;HPM_P1;HPM_P2
2024/01/18 00:00:03;;;;;;;6.80;3.70;;;-2.30;99.90;;;;;;5003707;28;20664;-81
2024/01/18 00:02:28;;;;;;;9.85;3.50;;;-1.20;99.90;;;;;;5019409;28;20389;-81
2024/01/18 00:04:54;;;;;;;10.25;4.25;;;-2.30;99.90;;;;;;5029334;28;20072;-83
2024/01/18 00:07:22;;;;;;;7.95;3.83;;;-2.30;99.90;;;;;;5001751;28;20057;-83
2024/01/18 00:09:47;;;;;;;10.63;4.05;;;-2.30;99.90;;;;;;5019047;28;20030;-81
2024/01/18 00:12:13;;;;;;;9.13;3.10;;;-2.30;99.90;;;;;;5019811;28;20064;-83
2024/01/18 00:14:38;;;;;;;14.35;3.65;;;-2.30;99.90;;;;;;5025955;28;20527;-82
2024/01/18 00:17:04;;;;;;;10.23;3.20;;;-2.20;99.90;;;;;;5007610;28;20391;-83
2024/01/18 00:19:30;;;;;;;7.13;2.80;;;-2.10;99.90;;;;;;5028238;28;20045;-84
2024/01/18 00:21:55;;;;;;;8.40;3.08;;;-2.10;99.90;;;;;;5000947;28;20057;-82
2024/01/18 00:24:21;;;;;;;8.15;2.95;;;-2.10;99.90;;;;;;5001447;28;20065;-81
2024/01/18 00:26:47;;;;;;;8.23;3.10;;;-1.40;99.90;;;;;;5004338;28;20435;-83
2024/01/18 00:29:12;;;;;;;8.40;2.40;;;-1.90;99.90;;;;;;5021826;28;20497;-82
2024/01/18 00:31:41;;;;;;;8.40;3.72;;;-1.90;99.90;;;;;;4987394;28;20096;-81
2024/01/18 00:34:06;;;;;;;10.32;2.20;;;-1.80;99.90;;;;;;5025070;28;20098;-82
2024/01/18 00:36:32;;;;;;;7.45;2.15;;;-1.90;99.90;;;;;;5001205;28;20077;-82
2024/01/18 00:38:58;;;;;;;6.47;2.25;;;-1.90;99.90;;;;;;5004268;28;20420;-81
2024/01/18 00:41:31;;;;;;;8.93;2.35;;;-1.50;99.90;;;;;;5021775;28;20121;-85
2024/01/18 00:43:56;;;;;;;4.13;1.65;;;-2.00;99.90;;;;;;5030033;28;20045;-82
2024/01/18 00:46:22;;;;;;;9.93;2.00;;;-1.90;99.90;;;;;;5019814;28;20103;-83
2024/01/18 00:48:48;;;;;;;10.48;2.08;;;-2.00;99.90;;;;;;5026756;28;20038;-80
2024/01/18 00:51:13;;;;;;;6.88;1.75;;;-2.20;99.90;;;;;;5000743;28;20054;-81
2024/01/18 00:53:39;;;;;;;12.95;2.42;;;-2.00;99.90;;;;;;5021594;28;20053;-80
2024/01/18 00:56:09;;;;;;;6.82;2.22;;;-2.00;99.90;;;;;;5024170;28;20528;-82
2024/01/18 00:58:36;;;;;;;9.35;2.63;;;-2.10;99.90;;;;;;5025182;28;20050;-85
2024/01/18 01:01:02;;;;;;;7.82;2.50;;;-2.20;99.90;;;;;;5030689;28;20128;-80
2024/01/18 01:03:28;;;;;;;7.22;2.88;;;-2.20;99.90;;;;;;5011056;28;20060;-82
2024/01/18 01:05:53;;;;;;;8.63;3.20;;;-2.20;99.90;;;;;;5021586;28;20042;-81
2024/01/18 01:08:19;;;;;;;11.27;2.70;;;-2.30;99.90;;;;;;5024162;28;20129;-83
2024/01/18 01:10:45;;;;;;;10.25;3.38;;;-2.50;99.90;;;;;;5025225;28;20084;-84
2024/01/18 01:13:10;;;;;;;10.38;2.53;;;-2.50;99.90;;;;;;5006682;28;20116;-81
2024/01/18 01:15:36;;;;;;;11.57;2.50;;;-2.50;99.90;;;;;;5024126;28;20124;-81
2024/01/18 01:18:02;;;;;;;9.70;3.13;;;-2.50;99.90;;;;;;5014574;28;20057;-81
2024/01/18 01:20:28;;;;;;;13.93;3.08;;;-2.50;99.90;;;;;;5004925;28;20511;-81
2024/01/18 01:22:54;;;;;;;12.35;3.25;;;-2.50;99.90;;;;;;5003745;28;20073;-80
2024/01/18 01:25:21;;;;;;;11.85;2.95;;;-2.50;99.90;;;;;;5003861;28;20111;-80
2024/01/18 01:27:47;;;;;;;12.90;2.55;;;-2.50;99.90;;;;;;5006962;28;20056;-81
2024/01/18 01:30:12;;;;;;;12.27;3.03;;;-2.50;99.90;;;;;;5024322;28;20041;-81
2024/01/18 01:32:38;;;;;;;11.15;2.22;;;-2.50;99.90;;;;;;5011686;28;20049;-81
2024/01/18 01:35:04;;;;;;;11.65;1.98;;;-2.60;99.90;;;;;;5014341;28;20052;-80
2024/01/18 01:37:29;;;;;;;6.78;1.80;;;-2.60;99.90;;;;;;5006617;28;20454;-80
2024/01/18 01:39:55;;;;;;;8.23;1.60;;;-2.50;99.90;;;;;;5003304;28;20041;-81
2024/01/18 01:42:21;;;;;;;12.02;2.00;;;-2.60;99.90;;;;;;5021221;28;20081;-81
2024/01/18 01:44:46;;;;;;;6.30;1.10;;;-2.60;99.90;;;;;;5003930;28;20053;-80
2024/01/18 01:47:12;;;;;;;4.25;1.20;;;-2.60;99.90;;;;;;5032130;28;20037;-80
2024/01/18 01:49:38;;;;;;;5.95;0.98;;;-2.50;99.90;;;;;;5005568;28;20045;-81
2024/01/18 01:52:04;;;;;;;5.45;1.13;;;-2.50;99.90;;;;;;5003343;28;20056;-80
2024/01/18 01:54:32;;;;;;;4.72;1.00;;;-2.50;99.90;;;;;;5002828;28;20042;-81
2024/01/18 01:57:00;;;;;;;5.25;1.00;;;-2.50;99.90;;;;;;5004061;28;20041;-81
2024/01/18 01:59:26;;;;;;;3.50;1.00;;;-2.60;99.90;;;;;;5023688;28;20045;-80
2024/01/18 02:01:52;;;;;;;6.13;1.23;;;-2.60;99.90;;;;;;5018755;28;20061;-81
2024/01/18 02:04:19;;;;;;;6.72;1.20;;;-2.60;99.90;;;;;;5027718;28;20045;-81
2024/01/18 02:06:49;;;;;;;4.43;1.00;;;-2.60;99.90;;;;;;5023662;28;20524;-81
2024/01/18 02:09:14;;;;;;;6.47;0.90;;;-2.60;99.90;;;;;;5012009;28;20049;-81
2024/01/18 02:11:40;;;;;;;4.50;1.00;;;-2.60;99.90;;;;;;5002745;28;20163;-80
2024/01/18 02:14:06;;;;;;;5.40;0.85;;;-2.60;99.90;;;;;;5028354;28;20049;-80
2024/01/18 02:16:32;;;;;;;6.57;1.00;;;-2.60;99.90;;;;;;5019595;28;20050;-80
2024/01/18 02:18:58;;;;;;;4.15;0.85;;;-2.60;99.90;;;;;;5002298;28;20049;-80
2024/01/18 02:21:25;;;;;;;3.42;0.77;;;-2.60;99.90;;;;;;5025435;28;20425;-82
2024/01/18 02:23:59;;;;;;;4.10;0.80;;;-2.60;99.90;;;;;;5026554;28;20046;-80
2024/01/18 02:26:25;;;;;;;3.60;0.80;;;-2.60;99.90;;;;;;5002910;28;20100;-80
2024/01/18 02:28:57;;;;;;;4.28;0.80;;;-2.60;99.90;;;;;;5005536;28;20045;-80
2024/01/18 02:31:23;;;;;;;4.82;0.80;;;-2.60;99.90;;;;;;5022574;28;20053;-81
2024/01/18 02:33:50;;;;;;;6.15;0.95;;;-2.60;99.90;;;;;;5005186;28;20041;-82
2024/01/18 02:36:17;;;;;;;4.40;0.77;;;-1.80;99.90;;;;;;5022875;28;20452;-80
2024/01/18 02:38:44;;;;;;;6.95;1.55;;;-2.60;99.90;;;;;;5021015;28;20054;-80
2024/01/18 02:41:10;;;;;;;8.00;2.67;;;-2.60;99.90;;;;;;5002105;28;20117;-80
2024/01/18 02:43:36;;;;;;;6.72;1.20;;;-2.70;99.90;;;;;;5019631;28;20149;-80
2024/01/18 02:46:01;;;;;;;7.15;1.25;;;-2.70;99.90;;;;;;5022698;28;20054;-80
2024/01/18 02:48:27;;;;;;;3.88;0.80;;;-2.80;99.90;;;;;;5022555;28;20041;-80
2024/01/18 02:50:52;;;;;;;4.72;0.80;;;-2.90;99.90;;;;;;5022046;28;20053;-80
2024/01/18 02:53:20;;;;;;;2.58;0.70;;;-2.90;99.90;;;;;;5008192;28;20061;-81
2024/01/18 02:55:46;;;;;;;2.35;0.63;;;-3.00;99.90;;;;;;5019509;28;20053;-80
2024/01/18 02:58:12;;;;;;;7.47;1.75;;;-3.00;99.90;;;;;;5022456;28;20053;-80
2024/01/18 03:00:38;;;;;;;2.97;0.80;;;-3.20;99.90;;;;;;5022353;28;20099;-80
2024/01/18 03:03:04;;;;;;;2.53;0.88;;;-3.20;99.90;;;;;;5021512;28;20050;-80
2024/01/18 03:05:31;;;;;;;3.65;1.13;;;-3.10;99.90;;;;;;5019708;28;20548;-80
2024/01/18 03:07:56;;;;;;;3.08;0.90;;;-3.20;99.90;;;;;;5019216;28;20092;-80
2024/01/18 03:10:22;;;;;;;4.65;1.10;;;-3.10;99.90;;;;;;5021545;28;20446;-80
2024/01/18 03:12:48;;;;;;;6.88;0.75;;;-3.10;99.90;;;;;;5022218;28;20084;-80
2024/01/18 03:15:14;;;;;;;3.33;0.90;;;-3.10;99.90;;;;;;5020831;28;20046;-80
2024/01/18 03:17:39;;;;;;;6.65;1.00;;;-1.90;99.90;;;;;;5027586;28;20042;-81
2024/01/18 03:20:07;;;;;;;5.13;0.85;;;-3.00;99.90;;;;;;5022696;28;20053;-84
2024/01/18 03:22:34;;;;;;;2.67;0.80;;;-2.90;99.90;;;;;;5019520;28;20045;-80
2024/01/18 03:25:01;;;;;;;4.35;0.80;;;-3.00;99.90;;;;;;5000945;28;20054;-81
2024/01/18 03:27:26;;;;;;;3.80;0.80;;;-2.90;99.90;;;;;;5001394;28;20525;-80
2024/01/18 03:29:52;;;;;;;3.55;0.70;;;-2.90;99.90;;;;;;5021921;28;20135;-81
2024/01/18 03:32:17;;;;;;;7.63;0.80;;;-2.90;99.90;;;;;;5028686;28;20081;-81
2024/01/18 03:34:43;;;;;;;5.35;0.80;;;-2.90;99.90;;;;;;5004043;28;20050;-82
2024/01/18 03:37:09;;;;;;;2.53;0.75;;;-2.90;99.90;;;;;;5021756;28;20041;-80
2024/01/18 03:39:36;;;;;;;4.13;0.90;;;-2.80;99.90;;;;;;5003446;28;20076;-80
2024/01/18 03:42:02;;;;;;;1.92;0.70;;;-3.70;99.90;;;;;;5018024;28;20077;-80
2024/01/18 03:44:27;;;;;;;5.07;0.75;;;-2.80;99.90;;;;;;5017725;28;20127;-80
2024/01/18 03:46:53;;;;;;;6.70;0.70;;;-2.80;99.90;;;;;;5019726;28;20052;-80
2024/01/18 03:49:22;;;;;;;3.45;0.55;;;-2.80;99.90;;;;;;5003975;28;20435;-81
2024/01/18 03:51:48;;;;;;;3.85;0.60;;;-2.70;99.90;;;;;;5002852;28;20050;-81
2024/01/18 03:54:14;;;;;;;2.75;0.70;;;-2.70;99.90;;;;;;5002076;28;20056;-80
2024/01/18 03:56:39;;;;;;;7.80;0.60;;;-2.70;99.90;;;;;;5020093;28;20049;-80
2024/01/18 03:59:05;;;;;;;2.85;0.70;;;-2.60;99.90;;;;;;5021910;28;20128;-80
2024/01/18 04:01:33;;;;;;;4.90;0.52;;;-2.50;99.90;;;;;;5024473;28;20746;-81
2024/01/18 04:04:00;;;;;;;5.82;0.50;;;-2.50;99.90;;;;;;5021788;28;20056;-82
2024/01/18 04:06:25;;;;;;;4.97;0.68;;;-2.50;99.90;;;;;;5021518;28;20053;-82
2024/01/18 04:08:51;;;;;;;4.47;0.55;;;-2.50;99.90;;;;;;5011157;28;20056;-80
2024/01/18 04:11:16;;;;;;;4.30;0.50;;;-2.50;99.90;;;;;;5018597;28;20084;-83
2024/01/18 04:13:42;;;;;;;0.80;0.40;;;-2.50;99.90;;;;;;5017934;28;20045;-82
2024/01/18 04:16:08;;;;;;;4.05;0.60;;;-2.50;99.90;;;;;;5022531;28;20053;-79
2024/01/18 04:18:34;;;;;;;3.85;0.60;;;-2.50;99.90;;;;;;5024025;28;20087;-82
2024/01/18 04:20:59;;;;;;;5.50;0.95;;;-2.40;99.90;;;;;;5020972;28;20038;-81
2024/01/18 04:23:25;;;;;;;3.65;0.68;;;-2.40;99.90;;;;;;5000728;28;20053;-81
2024/01/18 04:25:52;;;;;;;2.45;0.55;;;-2.50;99.90;;;;;;5000673;28;20129;-81
2024/01/18 04:28:21;;;;;;;4.78;0.50;;;-2.40;99.90;;;;;;5022622;28;20111;-81
2024/01/18 04:30:47;;;;;;;6.95;0.70;;;-2.50;99.90;;;;;;5025236;28;20050;-80
2024/01/18 04:33:13;;;;;;;5.55;0.80;;;-2.50;99.90;;;;;;5032429;28;20049;-83
2024/01/18 04:35:39;;;;;;;3.50;0.68;;;-2.50;99.90;;;;;;5021798;28;20053;-80
2024/01/18 04:38:06;;;;;;;4.70;0.70;;;-2.50;99.90;;;;;;5029122;28;20057;-82
2024/01/18 04:40:33;;;;;;;2.80;0.60;;;-2.50;99.90;;;;;;5029675;28;20064;-80
2024/01/18 04:42:59;;;;;;;4.75;0.80;;;-2.50;99.90;;;;;;5033309;28;20056;-81
2024/01/18 04:45:24;;;;;;;5.35;0.90;;;-2.60;99.90;;;;;;5024561;28;20045;-80
2024/01/18 04:47:52;;;;;;;4.88;1.55;;;-2.70;99.90;;;;;;5028797;28;20057;-80
2024/01/18 04:50:20;;;;;;;3.08;0.50;;;-2.60;99.90;;;;;;5029128;28;20045;-80
2024/01/18 04:52:48;;;;;;;7.78;1.02;;;-2.70;99.90;;;;;;4984518;28;20057;-79
2024/01/18 04:55:14;;;;;;;2.13;0.63;;;-2.70;99.90;;;;;;4984336;28;20065;-80
2024/01/18 04:57:40;;;;;;;8.18;0.82;;;-2.80;99.90;;;;;;5003101;28;20397;-80
2024/01/18 05:00:11;;;;;;;6.28;0.73;;;-2.90;99.90;;;;;;5004578;28;20054;-80
2024/01/18 05:02:38;;;;;;;2.03;0.60;;;-2.90;99.90;;;;;;5009438;28;20038;-80
2024/01/18 05:05:06;;;;;;;4.85;0.60;;;-2.90;99.90;;;;;;5011250;28;20050;-79
2024/01/18 05:07:31;;;;;;;3.35;0.70;;;-2.90;99.90;;;;;;5012009;28;20179;-80
2024/01/18 05:09:57;;;;;;;2.45;0.52;;;-3.00;99.90;;;;;;5004935;28;20148;-80
2024/01/18 05:12:23;;;;;;;5.47;1.27;;;-3.00;99.90;;;;;;4978441;28;20213;-79
2024/01/18 05:14:49;;;;;;;4.00;0.55;;;-3.00;99.90;;;;;;4997996;28;20500;-80
2024/01/18 05:17:16;;;;;;;1.48;0.50;;;-3.00;99.90;;;;;;4987462;28;20497;-80
2024/01/18 05:19:43;;;;;;;5.85;0.90;;;-3.00;99.90;;;;;;4983885;28;20086;-80
2024/01/18 05:22:09;;;;;;;2.35;0.60;;;-3.10;99.90;;;;;;5002665;28;20049;-80
2024/01/18 05:24:35;;;;;;;5.65;0.70;;;-2.40;99.90;;;;;;4985474;28;20042;-80
2024/01/18 05:27:01;;;;;;;1.73;0.55;;;-3.10;99.90;;;;;;5006716;28;20668;-80
2024/01/18 05:29:26;;;;;;;1.17;0.50;;;-3.10;99.90;;;;;;4987198;28;20057;-80
2024/01/18 05:31:52;;;;;;;5.22;1.02;;;-3.00;99.90;;;;;;4994523;28;20558;-79
2024/01/18 05:34:18;;;;;;;2.15;0.50;;;-3.10;99.90;;;;;;5010714;28;20547;-80
2024/01/18 05:36:45;;;;;;;6.38;0.60;;;-3.10;99.90;;;;;;5006805;28;20497;-79
2024/01/18 05:39:11;;;;;;;4.93;0.70;;;-3.00;99.90;;;;;;5003984;28;20480;-79
2024/01/18 05:41:36;;;;;;;3.05;0.60;;;-1.40;99.90;;;;;;4986644;28;20124;-80
2024/01/18 05:44:02;;;;;;;3.53;0.60;;;-2.80;99.90;;;;;;5007553;28;20141;-80
2024/01/18 05:46:28;;;;;;;3.00;0.50;;;-2.60;99.90;;;;;;5004336;28;20037;-79
2024/01/18 05:48:53;;;;;;;3.90;0.55;;;-2.50;99.90;;;;;;4993880;28;20084;-80
2024/01/18 05:51:19;;;;;;;0.82;0.40;;;-2.50;99.90;;;;;;4995592;28;20112;-80
2024/01/18 05:53:45;;;;;;;4.97;0.43;;;-2.40;99.90;;;;;;5023244;28;20106;-80
2024/01/18 05:56:11;;;;;;;2.80;0.47;;;-2.30;99.90;;;;;;5006304;28;20451;-80
2024/01/18 05:58:36;;;;;;;10.45;0.50;;;-2.10;99.90;;;;;;5023423;28;20045;-80
2024/01/18 06:01:02;;;;;;;4.57;0.60;;;-2.00;99.90;;;;;;5003489;28;20057;-79
2024/01/18 06:03:28;;;;;;;3.40;0.57;;;-1.90;99.90;;;;;;5031320;28;20068;-80
2024/01/18 06:05:54;;;;;;;1.70;0.40;;;-1.80;99.90;;;;;;5029083;28;20562;-80
2024/01/18 06:08:20;;;;;;;3.22;0.60;;;-1.80;99.90;;;;;;5026705;28;20559;-79
2024/01/18 06:10:45;;;;;;;4.57;0.43;;;-1.70;99.90;;;;;;5002717;28;20065;-79
2024/01/18 06:13:11;;;;;;;2.88;0.52;;;-1.70;99.90;;;;;;5028173;28;20124;-81
2024/01/18 06:15:37;;;;;;;2.47;0.55;;;-1.70;99.90;;;;;;5019235;28;20144;-80
2024/01/18 06:18:05;;;;;;;4.22;0.50;;;-1.70;99.90;;;;;;5012234;28;20540;-79
2024/01/18 06:20:31;;;;;;;1.73;0.43;;;-1.70;99.90;;;;;;4997393;28;20046;-79
2024/01/18 06:23:00;;;;;;;3.03;0.60;;;-1.80;99.90;;;;;;5004751;28;20065;-80
2024/01/18 06:25:26;;;;;;;7.25;0.93;;;-1.80;99.90;;;;;;5020073;28;20049;-80
2024/01/18 06:27:51;;;;;;;6.55;0.50;;;-1.80;99.90;;;;;;5002140;28;20045;-79
2024/01/18 06:30:18;;;;;;;5.05;0.70;;;-1.70;99.90;;;;;;5022982;28;20041;-79
2024/01/18 06:32:44;;;;;;;3.17;0.50;;;-1.70;99.90;;;;;;5025964;28;20113;-80
2024/01/18 06:35:10;;;;;;;4.18;0.50;;;-1.80;99.90;;;;;;5021869;28;20072;-80
2024/01/18 06:37:36;;;;;;;3.80;0.50;;;-1.80;99.90;;;;;;5023575;28;20030;-80
2024/01/18 06:40:03;;;;;;;5.20;0.70;;;-1.90;99.90;;;;;;4985574;28;20057;-79
2024/01/18 06:42:28;;;;;;;1.33;0.60;;;-1.80;99.90;;;;;;5025919;28;20049;-80
2024/01/18 06:44:54;;;;;;;6.25;0.75;;;-1.90;99.90;;;;;;5022794;28;20065;-80
2024/01/18 06:47:20;;;;;;;4.22;0.80;;;-0.50;99.90;;;;;;5026832;28;20049;-80
2024/01/18 06:49:45;;;;;;;3.53;0.60;;;-2.00;99.90;;;;;;5024791;28;20129;-80
2024/01/18 06:52:11;;;;;;;3.90;0.63;;;-2.00;99.90;;;;;;5001226;28;20057;-80
2024/01/18 06:54:37;;;;;;;3.22;0.70;;;-2.00;99.90;;;;;;5002631;28;20050;-80
2024/01/18 06:57:03;;;;;;;6.93;0.60;;;-2.00;99.90;;;;;;5022869;28;20072;-81
2024/01/18 06:59:29;;;;;;;4.25;0.60;;;-2.00;99.90;;;;;;5022308;28;20047;-81
2024/01/18 07:01:55;;;;;;;4.80;0.57;;;-2.10;99.90;;;;;;5021972;28;20080;-79
2024/01/18 07:04:21;;;;;;;3.50;0.60;;;-2.10;99.90;;;;;;5004585;28;20085;-80
2024/01/18 07:06:47;;;;;;;8.98;0.90;;;-2.10;99.90;;;;;;5029326;28;20518;-79
2024/01/18 07:09:12;;;;;;;2.53;0.60;;;-2.10;99.90;;;;;;5018955;28;20041;-83
2024/01/18 07:11:38;;;;;;;1.35;0.50;;;-2.10;99.90;;;;;;5001173;28;20050;-82
2024/01/18 07:14:04;;;;;;;7.18;0.65;;;-2.10;99.90;;;;;;5021312;28;20398;-81
2024/01/18 07:16:30;;;;;;;3.70;0.50;;;-2.20;99.90;;;;;;5022007;28;20034;-80
2024/01/18 07:18:55;;;;;;;3.97;0.80;;;-2.20;99.90;;;;;;5023261;28;20050;-80
2024/01/18 07:21:21;;;;;;;11.10;2.03;;;-2.20;99.90;;;;;;5019179;28;20136;-80
2024/01/18 07:23:46;;;;;;;8.18;0.80;;;-2.20;99.90;;;;;;5003285;28;20104;-80
2024/01/18 07:26:12;;;;;;;4.63;0.60;;;-2.20;99.90;;;;;;5010916;28;20053;-79
2024/01/18 07:28:38;;;;;;;4.10;0.80;;;-1.10;99.90;;;;;;5019369;28;20042;-82
2024/01/18 07:31:03;;;;;;;4.60;0.70;;;-2.20;99.90;;;;;;5003689;28;20129;-80
2024/01/18 07:33:29;;;;;;;3.75;0.60;;;-2.20;99.90;;;;;;5004359;28;20057;-81
2024/01/18 07:35:55;;;;;;;3.45;1.17;;;-2.30;99.90;;;;;;5004313;28;20046;-81
2024/01/18 07:38:20;;;;;;;7.57;1.75;;;-2.30;99.90;;;;;;5020697;28;20125;-81
2024/01/18 07:40:46;;;;;;;6.68;0.90;;;-2.20;99.90;;;;;;5018181;28;20128;-80
2024/01/18 07:43:13;;;;;;;5.25;1.10;;;-2.10;99.90;;;;;;5001218;28;20045;-80
2024/01/18 07:45:39;;;;;;;4.13;0.60;;;-2.00;99.90;;;;;;5021364;28;20057;-82
2024/01/18 07:48:05;;;;;;;2.85;0.50;;;-0.60;99.90;;;;;;5026139;28;20056;-81
2024/01/18 07:50:31;;;;;;;5.35;0.50;;;-1.50;99.90;;;;;;5011291;28;20049;-81
2024/01/18 07:52:56;;;;;;;2.35;0.45;;;-1.50;99.90;;;;;;5018442;28;20493;-83
2024/01/18 07:55:22;;;;;;;5.05;0.50;;;-1.30;99.90;;;;;;5017972;28;20076;-81
2024/01/18 07:57:48;;;;;;;3.88;0.75;;;-1.20;99.90;;;;;;5003505;28;20171;-81
2024/01/18 08:00:14;;;;;;;2.80;0.50;;;-1.20;99.90;;;;;;5004116;28;20045;-81
2024/01/18 08:02:40;;;;;;;6.07;0.60;;;-1.20;99.90;;;;;;5005134;28;20127;-81
2024/01/18 08:05:05;;;;;;;3.80;0.68;;;-1.30;99.90;;;;;;5004945;28;20113;-80
2024/01/18 08:07:31;;;;;;;4.85;1.05;;;-1.40;99.90;;;;;;5004837;28;20077;-80
2024/01/18 08:09:56;;;;;;;5.78;0.70;;;-1.40;99.90;;;;;;5030049;28;20401;-80
2024/01/18 08:12:22;;;;;;;3.70;0.88;;;-1.50;99.90;;;;;;5028423;28;20038;-80
2024/01/18 08:14:49;;;;;;;3.50;0.77;;;-1.60;99.90;;;;;;5004992;28;20088;-79
2024/01/18 08:17:14;;;;;;;3.30;0.73;;;-1.60;99.90;;;;;;5028636;28;20046;-81
2024/01/18 08:19:40;;;;;;;3.92;0.70;;;-1.70;99.90;;;;;;5012400;28;20057;-80
2024/01/18 08:22:07;;;;;;;1.80;0.70;;;-1.80;99.90;;;;;;5014171;28;20050;-80
2024/01/18 08:24:33;;;;;;;3.70;1.00;;;-1.80;99.90;;;;;;5004498;28;20073;-80
2024/01/18 08:26:59;;;;;;;3.50;0.70;;;-1.80;99.90;;;;;;5003658;28;20612;-80
2024/01/18 08:29:26;;;;;;;4.63;0.73;;;-1.80;99.90;;;;;;5030654;28;20057;-80
2024/01/18 08:31:52;;;;;;;4.72;1.10;;;-1.90;99.90;;;;;;5022203;28;20061;-79
2024/01/18 08:34:18;;;;;;;3.20;0.90;;;-1.90;99.90;;;;;;5023539;28;20034;-80
2024/01/18 08:36:43;;;;;;;4.75;1.05;;;-1.80;99.90;;;;;;5025029;28;20493;-80
2024/01/18 08:39:09;;;;;;;3.92;1.00;;;-1.80;99.90;;;;;;5024477;28;20049;-83
2024/01/18 08:41:35;;;;;;;6.35;1.00;;;-1.90;99.90;;;;;;5025207;28;20060;-80
2024/01/18 08:44:00;;;;;;;2.45;1.00;;;-1.90;99.90;;;;;;5033049;28;20737;-80
2024/01/18 08:46:26;;;;;;;5.65;1.20;;;-1.90;99.90;;;;;;5024458;28;20770;-80
2024/01/18 08:48:52;;;;;;;3.92;1.00;;;-1.80;99.90;;;;;;5021728;28;20229;-81
2024/01/18 08:51:18;;;;;;;5.47;1.40;;;-1.80;99.90;;;;;;5003709;28;20448;-81
2024/01/18 08:53:44;;;;;;;7.10;2.10;;;-1.80;99.90;;;;;;5006947;28;20053;-81
2024/01/18 08:56:10;;;;;;;7.22;1.45;;;-1.80;99.90;;;;;;5025069;28;20049;-80
2024/01/18 08:58:36;;;;;;;6.82;1.25;;;-1.80;99.90;;;;;;5023652;28;20096;-80
2024/01/18 09:01:02;;;;;;;6.88;1.40;;;-1.70;99.90;;;;;;5021753;28;20144;-80
2024/01/18 09:03:28;;;;;;;3.63;1.13;;;-1.70;99.90;;;;;;5004082;28;20125;-80
2024/01/18 09:05:55;;;;;;;7.25;1.10;;;-1.70;99.90;;;;;;5023734;28;20053;-81
2024/01/18 09:08:20;;;;;;;4.30;1.00;;;-1.70;99.90;;;;;;5010995;28;20042;-80
2024/01/18 09:10:46;;;;;;;5.55;1.15;;;-1.70;99.90;;;;;;5023088;28;20055;-80
2024/01/18 09:13:11;;;;;;;3.00;0.88;;;-1.60;99.90;;;;;;5024221;28;20052;-79
2024/01/18 09:15:37;;;;;;;2.90;1.05;;;-1.40;99.90;;;;;;5031036;28;20049;-80
2024/01/18 09:18:03;;;;;;;6.68;1.17;;;-1.40;99.90;;;;;;5013467;28;20073;-78
2024/01/18 09:20:30;;;;;;;4.70;0.98;;;-1.40;99.90;;;;;;5013915;28;20179;-79
2024/01/18 09:22:56;;;;;;;6.05;1.15;;;0.10;99.90;;;;;;5031521;28;20047;-79
2024/01/18 09:25:21;;;;;;;4.57;1.10;;;-1.40;99.90;;;;;;5013651;28;20084;-78
2024/01/18 09:27:47;;;;;;;10.05;1.50;;;-1.30;99.90;;;;;;5029129;28;20758;-79
2024/01/18 09:30:13;;;;;;;5.97;1.50;;;-1.30;99.90;;;;;;5006228;28;20050;-79
2024/01/18 09:32:39;;;;;;;4.43;1.50;;;-1.20;99.90;;;;;;5011307;28;20060;-79
2024/01/18 09:35:05;;;;;;;5.90;1.95;;;-1.10;99.90;;;;;;5006423;28;20055;-79
2024/01/18 09:37:31;;;;;;;10.77;2.05;;;-1.00;99.90;;;;;;5003290;28;20050;-79
2024/01/18 09:39:57;;;;;;;7.88;2.42;;;-0.80;99.90;;;;;;5020961;28;20053;-79
2024/01/18 09:42:30;;;;;;;14.10;6.88;;;-0.70;99.90;;;;;;5024632;28;20409;-79
2024/01/18 09:45:07;;;;;;;12.93;3.50;;;-0.60;99.90;;;;;;5024880;28;20045;-80
2024/01/18 09:47:33;;;;;;;8.18;2.42;;;-0.50;99.90;;;;;;5026353;28;20121;-80
2024/01/18 09:49:59;;;;;;;5.20;1.70;;;0.20;99.90;;;;;;5025604;28;20128;-80
2024/01/18 09:52:25;;;;;;;7.70;1.77;;;-0.50;99.90;;;;;;4999794;28;20054;-80
2024/01/18 09:54:50;;;;;;;6.45;2.00;;;-0.40;99.90;;;;;;5021654;28;20049;-80
2024/01/18 09:57:32;;;;;;;8.70;1.60;;;-0.30;99.90;;;;;;5023832;28;20087;-79
2024/01/18 10:00:01;;;;;;;10.48;1.40;;;-0.20;99.90;;;;;;4997826;28;20067;-82
2024/01/18 10:02:27;;;;;;;9.38;1.60;;;1.40;99.90;;;;;;5023137;28;20100;-79
2024/01/18 10:05:00;;;;;;;6.53;2.28;;;0.00;99.90;;;;;;5021308;28;20041;-79
2024/01/18 10:07:28;;;;;;;5.72;1.63;;;0.10;99.90;;;;;;5020544;28;20408;-79
2024/01/18 10:09:54;;;;;;;7.63;1.58;;;0.10;99.90;;;;;;5022185;28;20073;-82
2024/01/18 10:12:20;;;;;;;6.97;1.70;;;0.20;99.90;;;;;;5005648;28;20045;-80
2024/01/18 10:14:46;;;;;;;5.47;1.95;;;0.20;99.90;;;;;;5013985;28;20060;-79
2024/01/18 10:17:22;;;;;;;9.93;2.50;;;0.40;99.90;;;;;;5010328;28;20049;-80
2024/01/18 10:19:57;;;;;;;7.18;2.20;;;0.60;99.90;;;;;;5016215;28;20046;-79
2024/01/18 10:22:23;;;;;;;5.60;2.20;;;0.60;99.90;;;;;;5020127;28;20045;-79
2024/01/18 10:24:49;;;;;;;10.65;2.30;;;0.80;99.90;;;;;;5019743;28;20060;-80
2024/01/18 10:27:18;;;;;;;10.98;2.20;;;1.10;99.90;;;;;;5020568;28;20057;-82
2024/01/18 10:29:43;;;;;;;5.25;2.00;;;1.10;99.90;;;;;;5019958;28;20048;-80
2024/01/18 10:32:09;;;;;;;7.03;1.90;;;1.10;99.90;;;;;;5003159;28;20053;-79
2024/01/18 10:34:39;;;;;;;5.63;2.33;;;1.00;99.90;;;;;;4992674;28;20050;-80
2024/01/18 10:37:05;;;;;;;3.75;1.50;;;1.00;99.90;;;;;;5026408;28;20052;-81
2024/01/18 10:39:39;;;;;;;4.97;1.70;;;1.10;99.90;;;;;;5019792;28;20408;-80
2024/01/18 10:42:07;;;;;;;10.95;2.10;;;1.30;99.90;;;;;;5020176;28;20050;-79
2024/01/18 10:44:43;;;;;;;5.05;1.45;;;2.50;99.90;;;;;;5024278;28;20079;-81
2024/01/18 10:47:13;;;;;;;6.38;1.90;;;1.80;99.90;;;;;;5002655;28;20054;-80
2024/01/18 10:49:40;;;;;;;6.90;1.67;;;2.00;99.90;;;;;;5004374;28;20054;-81
2024/01/18 10:52:08;;;;;;;10.23;1.70;;;2.30;99.90;;;;;;5022595;28;20073;-83
2024/01/18 10:54:34;;;;;;;5.13;1.38;;;2.40;99.90;;;;;;5003882;28;20045;-81
2024/01/18 10:57:00;;;;;;;7.45;1.85;;;2.70;99.90;;;;;;5001574;28;20041;-81
2024/01/18 10:59:30;;;;;;;6.45;2.45;;;2.70;99.90;;;;;;5019523;28;20532;-81
2024/01/18 11:01:59;;;;;;;14.93;3.03;;;2.60;99.90;;;;;;5009872;28;20092;-82
2024/01/18 11:04:27;;;;;;;9.63;3.33;;;2.60;99.90;;;;;;5019513;28;20058;-83
2024/01/18 11:06:55;;;;;;;8.98;3.33;;;2.60;99.90;;;;;;5020717;28;20089;-81
2024/01/18 11:09:24;;;;;;;7.28;3.83;;;2.60;99.90;;;;;;5022354;28;20152;-81
2024/01/18 11:11:51;;;;;;;9.07;3.78;;;2.90;99.90;;;;;;5021770;28;20045;-82
2024/01/18 11:14:18;;;;;;;11.82;4.53;;;2.70;99.90;;;;;;5022408;28;20045;-80
2024/01/18 11:16:43;;;;;;;8.27;3.97;;;2.80;99.90;;;;;;5022825;28;20069;-80
2024/01/18 11:19:09;;;;;;;10.20;4.05;;;2.70;99.90;;;;;;5021101;28;20393;-81
2024/01/18 11:21:42;;;;;;;12.93;3.90;;;2.80;99.90;;;;;;5021801;28;20436;-80
2024/01/18 11:24:10;;;;;;;14.00;4.50;;;2.70;99.90;;;;;;5028643;28;20399;-80
2024/01/18 11:26:36;;;;;;;8.25;3.60;;;2.80;99.90;;;;;;5001294;28;20069;-79
2024/01/18 11:29:18;;;;;;;9.15;3.20;;;3.30;99.90;;;;;;5019272;28;20052;-80
2024/01/18 11:31:50;;;;;;;9.10;2.97;;;2.90;99.90;;;;;;5030389;28;20053;-81
2024/01/18 11:34:36;;;;;;;8.65;2.85;;;3.20;99.90;;;;;;5002370;28;20057;-80
2024/01/18 11:37:28;;;;;;;6.93;2.92;;;3.30;99.90;;;;;;5008520;28;20068;-80
2024/01/18 11:39:54;;;;;;;8.80;2.80;;;3.50;99.90;;;;;;5022888;28;20088;-80
2024/01/18 11:42:28;;;;;;;7.03;2.30;;;3.70;99.90;;;;;;5020723;28;20045;-80
2024/01/18 11:44:54;;;;;;;6.50;2.05;;;3.90;99.90;;;;;;5024557;28;20045;-80
2024/01/18 11:47:20;;;;;;;5.72;1.98;;;4.10;99.90;;;;;;5021621;28;20052;-80
2024/01/18 11:49:46;;;;;;;9.02;1.73;;;4.20;99.90;;;;;;5001182;28;20049;-80
2024/01/18 11:52:13;;;;;;;6.50;1.50;;;4.30;99.90;;;;;;5012537;28;20815;-81
2024/01/18 11:54:42;;;;;;;7.03;1.85;;;4.30;99.90;;;;;;5018944;28;20049;-81
2024/01/18 11:57:13;;;;;;;8.05;1.70;;;4.50;99.90;;;;;;5018649;28;20124;-81
2024/01/18 11:59:43;;;;;;;5.60;0.85;;;4.50;99.90;;;;;;5002392;28;20121;-81
2024/01/18 12:02:10;;;;;;;6.70;0.80;;;4.50;99.90;;;;;;5022016;28;20053;-79
2024/01/18 12:04:36;;;;;;;8.90;1.10;;;5.00;99.90;;;;;;5021751;28;20056;-81
2024/01/18 12:07:02;;;;;;;5.30;0.73;;;5.60;99.90;;;;;;5018871;28;20042;-81
2024/01/18 12:09:30;;;;;;;2.90;1.05;;;4.80;99.90;;;;;;5018389;28;20049;-80
2024/01/18 12:12:00;;;;;;;6.03;0.93;;;4.90;99.90;;;;;;5003215;28;20450;-80
2024/01/18 12:14:26;;;;;;;8.13;0.80;;;6.10;99.90;;;;;;5029302;28;20053;-81
2024/01/18 12:16:53;;;;;;;4.78;0.80;;;5.30;99.90;;;;;;5029319;28;20116;-80
2024/01/18 12:19:37;;;;;;;4.35;0.80;;;5.60;99.90;;;;;;5001026;28;20038;-80
2024/01/18 12:22:12;;;;;;;4.45;0.60;;;5.40;99.90;;;;;;5007880;28;20053;-80
2024/01/18 12:24:39;;;;;;;;;;;5.40;99.90;;;;;;5011335;28;20047;-81
2024/01/18 12:27:05;;;;;;;5.97;0.85;;;6.50;99.90;;;;;;5021397;28;19924;-81
2024/01/18 12:29:33;;;;;;;11.90;0.95;;;5.60;99.90;;;;;;5021783;28;20404;-81
2024/01/18 12:32:00;;;;;;;5.32;0.70;;;6.70;99.90;;;;;;5021672;28;20388;-81
2024/01/18 12:34:27;;;;;;;5.90;0.85;;;6.60;99.90;;;;;;5003755;28;20061;-81
2024/01/18 12:36:53;;;;;;;6.13;1.00;;;7.10;99.90;;;;;;5003633;28;20104;-81
2024/01/18 12:39:19;;;;;;;4.43;0.80;;;6.90;99.90;;;;;;5019682;28;20041;-80
2024/01/18 12:41:52;;;;;;;3.45;0.80;;;6.90;99.90;;;;;;5018114;28;20053;-81
2024/01/18 12:44:18;;;;;;;3.20;0.80;;;6.10;99.90;;;;;;5019083;28;20132;-81